sensor_id;sensor_type;location;lat;lon;timestamp;P1;durP1;ratioP1;P2;durP2;ratioP2
12135;SDS011;6131;56.420;15.548;2023-08-17T00:00:13;3.40;;;1.20;;
12135;SDS011;6131;56.420;15.548;2023-08-17T00:02:39;3.70;;;1.00;;
12135;SDS011;6131;56.420;15.548;2023-08-17T00:05:06;2.57;;;0.90;;
12135;SDS011;6131;56.420;15.548;2023-08-17T00:07:32;2.10;;;0.80;;
12135;SDS011;6131;56.420;15.548;2023-08-17T00:09:58;5.03;;;0.90;;
12135;SDS011;6131;56.420;15.548;2023-08-17T00:12:24;5.90;;;1.03;;
12135;SDS011;6131;56.420;15.548;2023-08-17T00:14:51;5.73;;;0.93;;
12135;SDS011;6131;56.420;15.548;2023-08-17T00:17:17;1.23;;;0.77;;
12135;SDS011;6131;56.420;15.548;2023-08-17T00:19:43;4.30;;;0.80;;
12135;SDS011;6131;56.420;15.548;2023-08-17T00:22:09;2.07;;;0.90;;
12135;SDS011;6131;56.420;15.548;2023-08-17T00:24:35;1.67;;;0.83;;
12135;SDS011;6131;56.420;15.548;2023-08-17T00:27:01;2.40;;;0.70;;
12135;SDS011;6131;56.420;15.548;2023-08-17T00:29:28;2.77;;;1.03;;
12135;SDS011;6131;56.420;15.548;2023-08-17T00:31:54;4.93;;;1.20;;
12135;SDS011;6131;56.420;15.548;2023-08-17T00:34:20;2.67;;;0.90;;
12135;SDS011;6131;56.420;15.548;2023-08-17T00:36:46;2.90;;;0.93;;
12135;SDS011;6131;56.420;15.548;2023-08-17T00:39:12;0.70;;;0.70;;
12135;SDS011;6131;56.420;15.548;2023-08-17T00:41:39;2.40;;;1.10;;
12135;SDS011;6131;56.420;15.548;2023-08-17T00:44:05;2.43;;;0.80;;
12135;SDS011;6131;56.420;15.548;2023-08-17T00:46:31;1.60;;;1.00;;
12135;SDS011;6131;56.420;15.548;2023-08-17T00:48:58;2.33;;;0.97;;
12135;SDS011;6131;56.420;15.548;2023-08-17T00:51:24;4.20;;;0.80;;
12135;SDS011;6131;56.420;15.548;2023-08-17T00:53:50;1.20;;;0.80;;
12135;SDS011;6131;56.420;15.548;2023-08-17T00:56:17;2.77;;;0.90;;
12135;SDS011;6131;56.420;15.548;2023-08-17T00:58:43;3.27;;;0.97;;
12135;SDS011;6131;56.420;15.548;2023-08-17T01:01:09;2.57;;;0.73;;
12135;SDS011;6131;56.420;15.548;2023-08-17T01:03:35;2.67;;;0.90;;
12135;SDS011;6131;56.420;15.548;2023-08-17T01:06:01;1.13;;;0.80;;
12135;SDS011;6131;56.420;15.548;2023-08-17T01:08:28;4.43;;;1.60;;
12135;SDS011;6131;56.420;15.548;2023-08-17T01:13:44;3.70;;;0.80;;
12135;SDS011;6131;56.420;15.548;2023-08-17T01:16:12;4.87;;;1.03;;
12135;SDS011;6131;56.420;15.548;2023-08-17T01:18:40;5.40;;;0.97;;
12135;SDS011;6131;56.420;15.548;2023-08-17T01:21:08;1.90;;;0.70;;
12135;SDS011;6131;56.420;15.548;2023-08-17T01:23:35;2.93;;;1.00;;
12135;SDS011;6131;56.420;15.548;2023-08-17T01:26:01;1.47;;;0.87;;
12135;SDS011;6131;56.420;15.548;2023-08-17T01:28:28;2.03;;;0.90;;
12135;SDS011;6131;56.420;15.548;2023-08-17T01:33:28;7.80;;;1.17;;
12135;SDS011;6131;56.420;15.548;2023-08-17T01:36:05;3.60;;;0.93;;
12135;SDS011;6131;56.420;15.548;2023-08-17T01:38:32;1.83;;;0.80;;
12135;SDS011;6131;56.420;15.548;2023-08-17T01:40:58;2.57;;;0.80;;
12135;SDS011;6131;56.420;15.548;2023-08-17T01:43:26;2.77;;;0.90;;
12135;SDS011;6131;56.420;15.548;2023-08-17T01:45:53;1.00;;;0.80;;
12135;SDS011;6131;56.420;15.548;2023-08-17T01:48:19;1.70;;;0.90;;
12135;SDS011;6131;56.420;15.548;2023-08-17T01:50:45;1.60;;;0.90;;
12135;SDS011;6131;56.420;15.548;2023-08-17T01:53:11;2.80;;;1.13;;
12135;SDS011;6131;56.420;15.548;2023-08-17T01:55:38;4.90;;;0.90;;
12135;SDS011;6131;56.420;15.548;2023-08-17T01:58:04;1.20;;;0.83;;
12135;SDS011;6131;56.420;15.548;2023-08-17T02:00:30;5.90;;;0.90;;
12135;SDS011;6131;56.420;15.548;2023-08-17T02:02:56;2.03;;;0.77;;
12135;SDS011;6131;56.420;15.548;2023-08-17T02:05:22;2.50;;;1.07;;
12135;SDS011;6131;56.420;15.548;2023-08-17T02:07:48;4.30;;;0.80;;
12135;SDS011;6131;56.420;15.548;2023-08-17T02:10:14;2.30;;;0.77;;
12135;SDS011;6131;56.420;15.548;2023-08-17T02:12:40;3.23;;;1.00;;
12135;SDS011;6131;56.420;15.548;2023-08-17T02:15:06;2.10;;;0.90;;
12135;SDS011;6131;56.420;15.548;2023-08-17T02:17:32;2.20;;;0.90;;
12135;SDS011;6131;56.420;15.548;2023-08-17T02:19:58;2.37;;;0.93;;
12135;SDS011;6131;56.420;15.548;2023-08-17T02:22:24;3.77;;;1.03;;
12135;SDS011;6131;56.420;15.548;2023-08-17T02:24:50;1.47;;;0.87;;
12135;SDS011;6131;56.420;15.548;2023-08-17T02:27:16;2.50;;;0.80;;
12135;SDS011;6131;56.420;15.548;2023-08-17T02:29:42;2.30;;;1.13;;
12135;SDS011;6131;56.420;15.548;2023-08-17T02:32:08;4.00;;;1.00;;
12135;SDS011;6131;56.420;15.548;2023-08-17T02:34:35;4.90;;;1.03;;
12135;SDS011;6131;56.420;15.548;2023-08-17T02:37:01;3.50;;;0.97;;
12135;SDS011;6131;56.420;15.548;2023-08-17T02:39:27;4.20;;;0.93;;
12135;SDS011;6131;56.420;15.548;2023-08-17T02:41:53;2.23;;;1.03;;
12135;SDS011;6131;56.420;15.548;2023-08-17T02:44:20;2.10;;;0.93;;
12135;SDS011;6131;56.420;15.548;2023-08-17T02:46:46;3.60;;;1.00;;
12135;SDS011;6131;56.420;15.548;2023-08-17T02:49:12;2.70;;;0.90;;
12135;SDS011;6131;56.420;15.548;2023-08-17T02:51:38;1.53;;;0.83;;
12135;SDS011;6131;56.420;15.548;2023-08-17T02:54:04;3.60;;;0.80;;
12135;SDS011;6131;56.420;15.548;2023-08-17T02:56:30;2.00;;;0.80;;
12135;SDS011;6131;56.420;15.548;2023-08-17T02:58:56;2.23;;;0.90;;
12135;SDS011;6131;56.420;15.548;2023-08-17T03:01:22;1.60;;;0.90;;
12135;SDS011;6131;56.420;15.548;2023-08-17T03:03:48;3.50;;;1.00;;
12135;SDS011;6131;56.420;15.548;2023-08-17T03:06:14;2.40;;;0.90;;
12135;SDS011;6131;56.420;15.548;2023-08-17T03:08:40;3.80;;;0.87;;
12135;SDS011;6131;56.420;15.548;2023-08-17T03:11:06;3.03;;;1.47;;
12135;SDS011;6131;56.420;15.548;2023-08-17T03:13:34;1.90;;;0.90;;
12135;SDS011;6131;56.420;15.548;2023-08-17T03:16:00;6.13;;;1.00;;
12135;SDS011;6131;56.420;15.548;2023-08-17T03:18:26;2.30;;;1.20;;
12135;SDS011;6131;56.420;15.548;2023-08-17T03:20:52;5.20;;;1.00;;
12135;SDS011;6131;56.420;15.548;2023-08-17T03:23:18;5.70;;;1.07;;
12135;SDS011;6131;56.420;15.548;2023-08-17T03:25:44;5.93;;;1.13;;
12135;SDS011;6131;56.420;15.548;2023-08-17T03:28:11;1.80;;;1.00;;
12135;SDS011;6131;56.420;15.548;2023-08-17T03:30:36;1.70;;;1.33;;
12135;SDS011;6131;56.420;15.548;2023-08-17T03:33:03;3.27;;;1.00;;
12135;SDS011;6131;56.420;15.548;2023-08-17T03:35:29;2.80;;;1.03;;
12135;SDS011;6131;56.420;15.548;2023-08-17T03:37:55;2.67;;;0.97;;
12135;SDS011;6131;56.420;15.548;2023-08-17T03:40:21;2.87;;;1.30;;
12135;SDS011;6131;56.420;15.548;2023-08-17T03:42:47;3.03;;;1.10;;
12135;SDS011;6131;56.420;15.548;2023-08-17T03:45:13;1.17;;;1.07;;
12135;SDS011;6131;56.420;15.548;2023-08-17T03:47:39;4.97;;;1.27;;
12135;SDS011;6131;56.420;15.548;2023-08-17T03:50:05;6.70;;;1.43;;
12135;SDS011;6131;56.420;15.548;2023-08-17T03:52:31;1.50;;;1.20;;
12135;SDS011;6131;56.420;15.548;2023-08-17T03:54:57;1.37;;;1.10;;
12135;SDS011;6131;56.420;15.548;2023-08-17T03:57:23;3.60;;;1.20;;
12135;SDS011;6131;56.420;15.548;2023-08-17T03:59:49;1.90;;;1.30;;
12135;SDS011;6131;56.420;15.548;2023-08-17T04:02:15;1.83;;;1.13;;
12135;SDS011;6131;56.420;15.548;2023-08-17T04:04:41;4.40;;;1.23;;
12135;SDS011;6131;56.420;15.548;2023-08-17T04:07:07;3.10;;;1.10;;
12135;SDS011;6131;56.420;15.548;2023-08-17T04:09:33;3.33;;;1.20;;
12135;SDS011;6131;56.420;15.548;2023-08-17T04:11:59;5.30;;;1.33;;
12135;SDS011;6131;56.420;15.548;2023-08-17T04:14:25;2.63;;;1.23;;
12135;SDS011;6131;56.420;15.548;2023-08-17T04:16:51;3.50;;;1.50;;
12135;SDS011;6131;56.420;15.548;2023-08-17T04:19:17;2.77;;;1.67;;
12135;SDS011;6131;56.420;15.548;2023-08-17T04:21:43;2.83;;;1.40;;
12135;SDS011;6131;56.420;15.548;2023-08-17T04:24:09;2.37;;;1.23;;
12135;SDS011;6131;56.420;15.548;2023-08-17T04:26:35;1.33;;;1.13;;
12135;SDS011;6131;56.420;15.548;2023-08-17T04:29:01;3.53;;;1.43;;
12135;SDS011;6131;56.420;15.548;2023-08-17T04:31:27;3.10;;;1.50;;
12135;SDS011;6131;56.420;15.548;2023-08-17T04:33:53;2.83;;;1.50;;
12135;SDS011;6131;56.420;15.548;2023-08-17T04:36:19;4.13;;;1.90;;
12135;SDS011;6131;56.420;15.548;2023-08-17T04:38:45;3.77;;;1.80;;
12135;SDS011;6131;56.420;15.548;2023-08-17T04:41:11;3.10;;;1.70;;
12135;SDS011;6131;56.420;15.548;2023-08-17T04:43:37;5.10;;;1.60;;
12135;SDS011;6131;56.420;15.548;2023-08-17T04:46:03;2.80;;;1.63;;
12135;SDS011;6131;56.420;15.548;2023-08-17T04:48:29;5.07;;;1.83;;
12135;SDS011;6131;56.420;15.548;2023-08-17T04:50:55;2.23;;;1.47;;
12135;SDS011;6131;56.420;15.548;2023-08-17T04:53:21;4.57;;;1.80;;
12135;SDS011;6131;56.420;15.548;2023-08-17T04:55:47;4.17;;;1.80;;
12135;SDS011;6131;56.420;15.548;2023-08-17T04:58:13;2.23;;;1.60;;
12135;SDS011;6131;56.420;15.548;2023-08-17T05:00:39;3.43;;;1.90;;
12135;SDS011;6131;56.420;15.548;2023-08-17T05:03:06;2.67;;;1.60;;
12135;SDS011;6131;56.420;15.548;2023-08-17T05:05:32;4.67;;;1.90;;
12135;SDS011;6131;56.420;15.548;2023-08-17T05:08:00;4.20;;;2.10;;
12135;SDS011;6131;56.420;15.548;2023-08-17T05:10:26;2.23;;;1.67;;
12135;SDS011;6131;56.420;15.548;2023-08-17T05:12:53;2.43;;;1.73;;
12135;SDS011;6131;56.420;15.548;2023-08-17T05:15:20;2.20;;;1.40;;
12135;SDS011;6131;56.420;15.548;2023-08-17T05:17:46;2.10;;;1.80;;
12135;SDS011;6131;56.420;15.548;2023-08-17T05:20:12;2.57;;;1.27;;
12135;SDS011;6131;56.420;15.548;2023-08-17T05:22:38;3.77;;;1.67;;
12135;SDS011;6131;56.420;15.548;2023-08-17T05:25:04;1.60;;;1.50;;
12135;SDS011;6131;56.420;15.548;2023-08-17T05:27:30;1.90;;;1.80;;
12135;SDS011;6131;56.420;15.548;2023-08-17T05:29:56;2.80;;;1.60;;
12135;SDS011;6131;56.420;15.548;2023-08-17T05:32:22;2.60;;;1.80;;
12135;SDS011;6131;56.420;15.548;2023-08-17T05:34:48;2.10;;;1.40;;
12135;SDS011;6131;56.420;15.548;2023-08-17T05:37:14;3.00;;;2.00;;
12135;SDS011;6131;56.420;15.548;2023-08-17T05:39:41;3.60;;;2.33;;
12135;SDS011;6131;56.420;15.548;2023-08-17T05:42:07;2.63;;;2.00;;
12135;SDS011;6131;56.420;15.548;2023-08-17T05:44:34;4.37;;;1.80;;
12135;SDS011;6131;56.420;15.548;2023-08-17T05:47:00;4.57;;;2.20;;
12135;SDS011;6131;56.420;15.548;2023-08-17T05:49:26;2.47;;;2.07;;
12135;SDS011;6131;56.420;15.548;2023-08-17T05:51:53;2.93;;;2.20;;
12135;SDS011;6131;56.420;15.548;2023-08-17T05:54:19;4.10;;;1.93;;
12135;SDS011;6131;56.420;15.548;2023-08-17T05:56:45;2.50;;;2.30;;
12135;SDS011;6131;56.420;15.548;2023-08-17T05:59:12;4.40;;;2.70;;
12135;SDS011;6131;56.420;15.548;2023-08-17T06:01:39;4.57;;;2.80;;
12135;SDS011;6131;56.420;15.548;2023-08-17T06:04:05;3.53;;;2.80;;
12135;SDS011;6131;56.420;15.548;2023-08-17T06:06:32;3.07;;;2.77;;
12135;SDS011;6131;56.420;15.548;2023-08-17T06:08:58;5.17;;;2.73;;
12135;SDS011;6131;56.420;15.548;2023-08-17T06:11:24;4.03;;;3.00;;
12135;SDS011;6131;56.420;15.548;2023-08-17T06:13:50;5.30;;;2.30;;
12135;SDS011;6131;56.420;15.548;2023-08-17T06:16:16;3.07;;;2.20;;
12135;SDS011;6131;56.420;15.548;2023-08-17T06:18:42;2.80;;;2.03;;
12135;SDS011;6131;56.420;15.548;2023-08-17T06:21:08;2.93;;;2.00;;
12135;SDS011;6131;56.420;15.548;2023-08-17T06:23:34;3.17;;;2.10;;
12135;SDS011;6131;56.420;15.548;2023-08-17T06:26:00;3.77;;;2.30;;
12135;SDS011;6131;56.420;15.548;2023-08-17T06:28:26;3.23;;;2.03;;
12135;SDS011;6131;56.420;15.548;2023-08-17T06:30:56;1.80;;;1.70;;
12135;SDS011;6131;56.420;15.548;2023-08-17T06:33:22;4.53;;;2.07;;
12135;SDS011;6131;56.420;15.548;2023-08-17T06:35:49;2.80;;;2.00;;
12135;SDS011;6131;56.420;15.548;2023-08-17T06:38:15;2.70;;;1.53;;
12135;SDS011;6131;56.420;15.548;2023-08-17T06:40:41;2.37;;;1.60;;
12135;SDS011;6131;56.420;15.548;2023-08-17T06:43:07;2.90;;;1.50;;
12135;SDS011;6131;56.420;15.548;2023-08-17T06:45:34;4.87;;;1.47;;
12135;SDS011;6131;56.420;15.548;2023-08-17T06:48:00;2.60;;;1.40;;
12135;SDS011;6131;56.420;15.548;2023-08-17T06:50:26;1.97;;;1.30;;
12135;SDS011;6131;56.420;15.548;2023-08-17T06:52:53;2.60;;;1.33;;
12135;SDS011;6131;56.420;15.548;2023-08-17T06:55:19;2.77;;;1.27;;
12135;SDS011;6131;56.420;15.548;2023-08-17T06:57:46;2.27;;;1.10;;
12135;SDS011;6131;56.420;15.548;2023-08-17T07:00:14;1.17;;;1.07;;
12135;SDS011;6131;56.420;15.548;2023-08-17T07:02:40;2.43;;;1.20;;
12135;SDS011;6131;56.420;15.548;2023-08-17T07:05:06;2.00;;;1.50;;
12135;SDS011;6131;56.420;15.548;2023-08-17T07:07:33;2.63;;;1.60;;
12135;SDS011;6131;56.420;15.548;2023-08-17T07:09:59;3.07;;;1.20;;
12135;SDS011;6131;56.420;15.548;2023-08-17T07:12:26;2.10;;;1.17;;
12135;SDS011;6131;56.420;15.548;2023-08-17T07:14:53;1.40;;;1.00;;
12135;SDS011;6131;56.420;15.548;2023-08-17T07:17:19;2.63;;;0.98;;
12135;SDS011;6131;56.420;15.548;2023-08-17T07:19:45;3.60;;;1.00;;
12135;SDS011;6131;56.420;15.548;2023-08-17T07:22:11;2.10;;;1.17;;
12135;SDS011;6131;56.420;15.548;2023-08-17T07:24:37;1.55;;;1.27;;
12135;SDS011;6131;56.420;15.548;2023-08-17T07:27:03;3.15;;;1.58;;
12135;SDS011;6131;56.420;15.548;2023-08-17T07:29:29;1.63;;;1.00;;
12135;SDS011;6131;56.420;15.548;2023-08-17T07:31:55;2.10;;;1.00;;
12135;SDS011;6131;56.420;15.548;2023-08-17T07:34:26;1.95;;;1.00;;
12135;SDS011;6131;56.420;15.548;2023-08-17T07:36:52;1.70;;;1.00;;
12135;SDS011;6131;56.420;15.548;2023-08-17T07:39:18;1.25;;;1.10;;
12135;SDS011;6131;56.420;15.548;2023-08-17T07:41:44;2.55;;;1.17;;
12135;SDS011;6131;56.420;15.548;2023-08-17T07:44:10;1.05;;;0.88;;
12135;SDS011;6131;56.420;15.548;2023-08-17T07:46:36;1.17;;;0.90;;
12135;SDS011;6131;56.420;15.548;2023-08-17T07:49:02;1.45;;;0.95;;
12135;SDS011;6131;56.420;15.548;2023-08-17T07:51:28;1.45;;;1.00;;
12135;SDS011;6131;56.420;15.548;2023-08-17T07:53:56;1.75;;;0.98;;
12135;SDS011;6131;56.420;15.548;2023-08-17T07:56:22;2.45;;;1.00;;
12135;SDS011;6131;56.420;15.548;2023-08-17T07:58:48;2.70;;;1.20;;
12135;SDS011;6131;56.420;15.548;2023-08-17T08:01:14;1.08;;;0.98;;
12135;SDS011;6131;56.420;15.548;2023-08-17T08:03:40;2.13;;;1.08;;
12135;SDS011;6131;56.420;15.548;2023-08-17T08:06:06;2.42;;;1.00;;
12135;SDS011;6131;56.420;15.548;2023-08-17T08:08:32;2.75;;;0.90;;
12135;SDS011;6131;56.420;15.548;2023-08-17T08:10:58;0.80;;;0.80;;
12135;SDS011;6131;56.420;15.548;2023-08-17T08:13:24;1.05;;;0.80;;
12135;SDS011;6131;56.420;15.548;2023-08-17T08:15:50;1.38;;;0.80;;
12135;SDS011;6131;56.420;15.548;2023-08-17T08:18:16;1.67;;;0.73;;
12135;SDS011;6131;56.420;15.548;2023-08-17T08:20:42;3.90;;;0.98;;
12135;SDS011;6131;56.420;15.548;2023-08-17T08:23:08;1.15;;;0.90;;
12135;SDS011;6131;56.420;15.548;2023-08-17T08:25:34;2.13;;;1.02;;
12135;SDS011;6131;56.420;15.548;2023-08-17T08:28:00;1.65;;;0.90;;
12135;SDS011;6131;56.420;15.548;2023-08-17T08:30:26;1.20;;;0.90;;
12135;SDS011;6131;56.420;15.548;2023-08-17T08:32:52;2.22;;;1.00;;
12135;SDS011;6131;56.420;15.548;2023-08-17T08:35:20;2.08;;;1.08;;
12135;SDS011;6131;56.420;15.548;2023-08-17T08:37:47;2.22;;;0.80;;
12135;SDS011;6131;56.420;15.548;2023-08-17T08:40:13;2.10;;;1.00;;
12135;SDS011;6131;56.420;15.548;2023-08-17T08:42:40;2.13;;;1.10;;
12135;SDS011;6131;56.420;15.548;2023-08-17T08:45:06;2.95;;;0.80;;
12135;SDS011;6131;56.420;15.548;2023-08-17T08:47:34;1.63;;;0.90;;
12135;SDS011;6131;56.420;15.548;2023-08-17T08:50:00;2.08;;;0.88;;
12135;SDS011;6131;56.420;15.548;2023-08-17T08:52:32;1.98;;;0.82;;
12135;SDS011;6131;56.420;15.548;2023-08-17T08:54:59;2.40;;;0.90;;
12135;SDS011;6131;56.420;15.548;2023-08-17T08:57:28;1.20;;;0.75;;
12135;SDS011;6131;56.420;15.548;2023-08-17T08:59:55;1.98;;;1.00;;
12135;SDS011;6131;56.420;15.548;2023-08-17T09:02:21;1.33;;;0.98;;
12135;SDS011;6131;56.420;15.548;2023-08-17T09:04:47;2.00;;;0.90;;
12135;SDS011;6131;56.420;15.548;2023-08-17T09:07:13;2.20;;;0.85;;
12135;SDS011;6131;56.420;15.548;2023-08-17T09:09:40;1.70;;;0.85;;
12135;SDS011;6131;56.420;15.548;2023-08-17T09:12:07;1.95;;;0.90;;
12135;SDS011;6131;56.420;15.548;2023-08-17T09:14:34;5.75;;;1.00;;
12135;SDS011;6131;56.420;15.548;2023-08-17T09:17:00;1.15;;;0.80;;
12135;SDS011;6131;56.420;15.548;2023-08-17T09:19:26;2.08;;;0.80;;
12135;SDS011;6131;56.420;15.548;2023-08-17T09:21:53;2.47;;;0.95;;
12135;SDS011;6131;56.420;15.548;2023-08-17T09:24:19;1.67;;;0.93;;
12135;SDS011;6131;56.420;15.548;2023-08-17T09:26:45;2.70;;;0.98;;
12135;SDS011;6131;56.420;15.548;2023-08-17T09:29:17;2.13;;;0.80;;
12135;SDS011;6131;56.420;15.548;2023-08-17T09:31:43;1.10;;;0.90;;
12135;SDS011;6131;56.420;15.548;2023-08-17T09:34:10;1.42;;;0.88;;
12135;SDS011;6131;56.420;15.548;2023-08-17T09:36:36;2.63;;;0.70;;
12135;SDS011;6131;56.420;15.548;2023-08-17T09:39:02;1.50;;;0.70;;
12135;SDS011;6131;56.420;15.548;2023-08-17T09:41:28;1.38;;;0.80;;
12135;SDS011;6131;56.420;15.548;2023-08-17T09:43:55;2.90;;;0.95;;
12135;SDS011;6131;56.420;15.548;2023-08-17T09:46:21;1.45;;;0.80;;
12135;SDS011;6131;56.420;15.548;2023-08-17T09:48:47;1.38;;;0.90;;
12135;SDS011;6131;56.420;15.548;2023-08-17T09:51:16;1.45;;;1.00;;
12135;SDS011;6131;56.420;15.548;2023-08-17T09:53:43;1.35;;;0.88;;
12135;SDS011;6131;56.420;15.548;2023-08-17T09:56:09;1.70;;;0.90;;
12135;SDS011;6131;56.420;15.548;2023-08-17T09:58:36;1.23;;;1.00;;
12135;SDS011;6131;56.420;15.548;2023-08-17T10:01:05;2.78;;;0.82;;
12135;SDS011;6131;56.420;15.548;2023-08-17T10:03:33;1.30;;;0.93;;
12135;SDS011;6131;56.420;15.548;2023-08-17T10:06:04;1.50;;;0.80;;
12135;SDS011;6131;56.420;15.548;2023-08-17T10:08:36;2.25;;;0.80;;
12135;SDS011;6131;56.420;15.548;2023-08-17T10:11:05;1.95;;;0.90;;
12135;SDS011;6131;56.420;15.548;2023-08-17T10:13:35;2.58;;;0.82;;
12135;SDS011;6131;56.420;15.548;2023-08-17T10:21:06;1.38;;;0.90;;
12135;SDS011;6131;56.420;15.548;2023-08-17T10:23:32;1.95;;;0.90;;
12135;SDS011;6131;56.420;15.548;2023-08-17T10:26:00;1.23;;;0.90;;
12135;SDS011;6131;56.420;15.548;2023-08-17T10:28:30;1.60;;;0.90;;
12135;SDS011;6131;56.420;15.548;2023-08-17T10:30:57;3.08;;;1.00;;
12135;SDS011;6131;56.420;15.548;2023-08-17T10:33:24;1.05;;;0.80;;
12135;SDS011;6131;56.420;15.548;2023-08-17T10:35:50;1.90;;;1.00;;
12135;SDS011;6131;56.420;15.548;2023-08-17T10:38:16;1.60;;;0.90;;
12135;SDS011;6131;56.420;15.548;2023-08-17T10:40:42;2.05;;;0.85;;
12135;SDS011;6131;56.420;15.548;2023-08-17T10:43:09;0.80;;;0.60;;
12135;SDS011;6131;56.420;15.548;2023-08-17T10:45:36;1.20;;;0.85;;
12135;SDS011;6131;56.420;15.548;2023-08-17T10:50:31;2.63;;;1.00;;
12135;SDS011;6131;56.420;15.548;2023-08-17T10:53:03;1.23;;;0.80;;
12135;SDS011;6131;56.420;15.548;2023-08-17T10:55:36;1.58;;;0.80;;
12135;SDS011;6131;56.420;15.548;2023-08-17T10:58:03;1.55;;;0.82;;
12135;SDS011;6131;56.420;15.548;2023-08-17T11:00:38;1.17;;;0.88;;
12135;SDS011;6131;56.420;15.548;2023-08-17T11:05:34;3.97;;;0.93;;
12135;SDS011;6131;56.420;15.548;2023-08-17T11:08:04;1.65;;;0.90;;
12135;SDS011;6131;56.420;15.548;2023-08-17T11:10:30;1.85;;;1.00;;
12135;SDS011;6131;56.420;15.548;2023-08-17T11:12:56;2.08;;;1.00;;
12135;SDS011;6131;56.420;15.548;2023-08-17T11:15:34;1.33;;;0.60;;
12135;SDS011;6131;56.420;15.548;2023-08-17T11:18:03;0.70;;;0.68;;
12135;SDS011;6131;56.420;15.548;2023-08-17T11:20:29;2.38;;;0.80;;
12135;SDS011;6131;56.420;15.548;2023-08-17T11:22:55;1.25;;;0.70;;
12135;SDS011;6131;56.420;15.548;2023-08-17T11:25:23;1.33;;;0.80;;
12135;SDS011;6131;56.420;15.548;2023-08-17T11:27:49;1.52;;;0.73;;
12135;SDS011;6131;56.420;15.548;2023-08-17T11:30:15;1.88;;;0.80;;
12135;SDS011;6131;56.420;15.548;2023-08-17T11:32:41;1.10;;;0.80;;
12135;SDS011;6131;56.420;15.548;2023-08-17T11:35:07;1.25;;;0.60;;
12135;SDS011;6131;56.420;15.548;2023-08-17T11:37:33;1.88;;;0.73;;
12135;SDS011;6131;56.420;15.548;2023-08-17T11:39:59;1.52;;;0.88;;
12135;SDS011;6131;56.420;15.548;2023-08-17T11:42:25;1.60;;;0.80;;
12135;SDS011;6131;56.420;15.548;2023-08-17T11:44:51;1.05;;;0.82;;
12135;SDS011;6131;56.420;15.548;2023-08-17T11:47:18;2.15;;;0.90;;
12135;SDS011;6131;56.420;15.548;2023-08-17T11:49:47;3.38;;;0.90;;
12135;SDS011;6131;56.420;15.548;2023-08-17T11:52:14;1.05;;;0.80;;
12135;SDS011;6131;56.420;15.548;2023-08-17T11:54:41;1.42;;;0.90;;
12135;SDS011;6131;56.420;15.548;2023-08-17T11:57:07;1.30;;;0.80;;
12135;SDS011;6131;56.420;15.548;2023-08-17T11:59:33;1.30;;;0.90;;
12135;SDS011;6131;56.420;15.548;2023-08-17T12:02:00;1.33;;;0.80;;
12135;SDS011;6131;56.420;15.548;2023-08-17T12:04:26;2.60;;;0.80;;
12135;SDS011;6131;56.420;15.548;2023-08-17T12:06:52;1.48;;;0.90;;
12135;SDS011;6131;56.420;15.548;2023-08-17T12:09:18;1.08;;;0.77;;
12135;SDS011;6131;56.420;15.548;2023-08-17T12:11:44;1.27;;;0.70;;
12135;SDS011;6131;56.420;15.548;2023-08-17T12:14:11;1.38;;;0.88;;
12135;SDS011;6131;56.420;15.548;2023-08-17T12:16:47;2.53;;;0.80;;
12135;SDS011;6131;56.420;15.548;2023-08-17T12:19:13;1.02;;;0.68;;
12135;SDS011;6131;56.420;15.548;2023-08-17T12:21:42;1.20;;;0.70;;
12135;SDS011;6131;56.420;15.548;2023-08-17T12:24:09;1.85;;;0.90;;
12135;SDS011;6131;56.420;15.548;2023-08-17T12:26:46;1.08;;;0.80;;
12135;SDS011;6131;56.420;15.548;2023-08-17T12:29:12;1.30;;;0.63;;
12135;SDS011;6131;56.420;15.548;2023-08-17T12:31:38;1.10;;;0.70;;
12135;SDS011;6131;56.420;15.548;2023-08-17T12:34:04;1.73;;;1.00;;
12135;SDS011;6131;56.420;15.548;2023-08-17T12:36:34;2.63;;;0.80;;
12135;SDS011;6131;56.420;15.548;2023-08-17T12:39:00;2.35;;;0.82;;
12135;SDS011;6131;56.420;15.548;2023-08-17T12:41:26;1.35;;;0.80;;
12135;SDS011;6131;56.420;15.548;2023-08-17T12:43:52;2.05;;;0.77;;
12135;SDS011;6131;56.420;15.548;2023-08-17T12:46:19;1.80;;;0.80;;
12135;SDS011;6131;56.420;15.548;2023-08-17T12:48:45;3.35;;;1.00;;
12135;SDS011;6131;56.420;15.548;2023-08-17T12:51:11;4.18;;;0.90;;
12135;SDS011;6131;56.420;15.548;2023-08-17T12:53:37;1.83;;;0.80;;
12135;SDS011;6131;56.420;15.548;2023-08-17T12:56:03;1.70;;;0.80;;
12135;SDS011;6131;56.420;15.548;2023-08-17T12:58:29;1.15;;;0.80;;
12135;SDS011;6131;56.420;15.548;2023-08-17T13:00:55;1.02;;;0.80;;
12135;SDS011;6131;56.420;15.548;2023-08-17T13:03:21;2.10;;;0.80;;
12135;SDS011;6131;56.420;15.548;2023-08-17T13:05:47;1.45;;;0.77;;
12135;SDS011;6131;56.420;15.548;2023-08-17T13:08:13;0.82;;;0.80;;
12135;SDS011;6131;56.420;15.548;2023-08-17T13:10:40;1.80;;;0.80;;
12135;SDS011;6131;56.420;15.548;2023-08-17T13:13:06;1.20;;;0.90;;
12135;SDS011;6131;56.420;15.548;2023-08-17T13:15:33;1.42;;;0.80;;
12135;SDS011;6131;56.420;15.548;2023-08-17T13:17:59;3.13;;;0.88;;
12135;SDS011;6131;56.420;15.548;2023-08-17T13:20:26;0.93;;;0.80;;
12135;SDS011;6131;56.420;15.548;2023-08-17T13:22:52;3.08;;;1.00;;
12135;SDS011;6131;56.420;15.548;2023-08-17T13:25:18;1.63;;;0.75;;
12135;SDS011;6131;56.420;15.548;2023-08-17T13:27:44;1.20;;;0.88;;
12135;SDS011;6131;56.420;15.548;2023-08-17T13:30:10;1.40;;;0.93;;
12135;SDS011;6131;56.420;15.548;2023-08-17T13:32:36;1.33;;;0.98;;
12135;SDS011;6131;56.420;15.548;2023-08-17T13:35:02;1.30;;;0.80;;
12135;SDS011;6131;56.420;15.548;2023-08-17T13:37:28;1.38;;;0.75;;
12135;SDS011;6131;56.420;15.548;2023-08-17T13:39:55;1.10;;;0.80;;
12135;SDS011;6131;56.420;15.548;2023-08-17T13:42:21;1.55;;;0.80;;
12135;SDS011;6131;56.420;15.548;2023-08-17T13:44:47;1.58;;;0.82;;
12135;SDS011;6131;56.420;15.548;2023-08-17T13:47:13;1.17;;;0.77;;
12135;SDS011;6131;56.420;15.548;2023-08-17T13:49:39;1.35;;;0.75;;
12135;SDS011;6131;56.420;15.548;2023-08-17T13:52:05;1.35;;;0.80;;
12135;SDS011;6131;56.420;15.548;2023-08-17T13:54:31;1.77;;;0.77;;
12135;SDS011;6131;56.420;15.548;2023-08-17T13:56:57;1.40;;;0.80;;
12135;SDS011;6131;56.420;15.548;2023-08-17T13:59:23;0.93;;;0.70;;
12135;SDS011;6131;56.420;15.548;2023-08-17T14:01:49;2.53;;;0.80;;
12135;SDS011;6131;56.420;15.548;2023-08-17T14:04:15;1.33;;;0.80;;
12135;SDS011;6131;56.420;15.548;2023-08-17T14:06:42;0.90;;;0.80;;
12135;SDS011;6131;56.420;15.548;2023-08-17T14:09:09;1.70;;;0.70;;
12135;SDS011;6131;56.420;15.548;2023-08-17T14:11:35;3.25;;;0.98;;
12135;SDS011;6131;56.420;15.548;2023-08-17T14:14:01;1.23;;;0.80;;
12135;SDS011;6131;56.420;15.548;2023-08-17T14:16:27;1.08;;;0.70;;
12135;SDS011;6131;56.420;15.548;2023-08-17T14:18:53;1.38;;;0.80;;
12135;SDS011;6131;56.420;15.548;2023-08-17T14:21:19;1.33;;;0.80;;
12135;SDS011;6131;56.420;15.548;2023-08-17T14:23:45;1.85;;;0.88;;
12135;SDS011;6131;56.420;15.548;2023-08-17T14:26:11;1.30;;;0.82;;
12135;SDS011;6131;56.420;15.548;2023-08-17T14:28:37;1.65;;;0.80;;
12135;SDS011;6131;56.420;15.548;2023-08-17T14:31:03;3.30;;;1.00;;
12135;SDS011;6131;56.420;15.548;2023-08-17T14:33:29;2.20;;;1.02;;
12135;SDS011;6131;56.420;15.548;2023-08-17T14:35:55;1.48;;;1.00;;
12135;SDS011;6131;56.420;15.548;2023-08-17T14:38:21;1.90;;;1.10;;
12135;SDS011;6131;56.420;15.548;2023-08-17T14:40:48;2.17;;;0.93;;
12135;SDS011;6131;56.420;15.548;2023-08-17T14:43:15;1.23;;;0.80;;
12135;SDS011;6131;56.420;15.548;2023-08-17T14:45:41;2.55;;;1.10;;
12135;SDS011;6131;56.420;15.548;2023-08-17T14:48:07;1.88;;;1.00;;
12135;SDS011;6131;56.420;15.548;2023-08-17T14:50:34;2.97;;;0.85;;
12135;SDS011;6131;56.420;15.548;2023-08-17T14:53:00;2.65;;;1.17;;
12135;SDS011;6131;56.420;15.548;2023-08-17T14:55:33;2.22;;;1.20;;
12135;SDS011;6131;56.420;15.548;2023-08-17T14:57:59;2.60;;;1.00;;